Time;durP1;ratioP1;P1;durP2;ratioP2;P2;SDS_P1;SDS_P2;PMS_P1;PMS_P2;Temp;Humidity;BMP_temperature;BMP_pressure;BME280_temperature;BME280_humidity;BME280_pressure;Samples;Min_cycle;Max_cycle;Signal;HPM_P1;HPM_P2
2023/04/07 00:01:47;;;;;;;;;;;;;;;;;;4423431;32;19971;-79
2023/04/07 00:04:12;;;;;;;;;;;;;;;;;;4423728;32;19937;-79
2023/04/07 00:06:37;;;;;;;;;;;;;;;;;;4423447;32;19933;-79
2023/04/07 00:09:02;;;;;;;;;;;;;;;;;;4421647;32;19952;-80
2023/04/07 00:11:27;;;;;;;;;;;;;;;;;;4423227;32;19941;-79
2023/04/07 00:13:52;;;;;;;;;;;;;;;;;;4422564;32;20394;-76
2023/04/07 00:16:19;;;;;;;;;;;;;;;;;;4422835;32;19985;-78
2023/04/07 00:18:44;;;;;;;;;;;;;;;;;;4421778;32;19974;-78
2023/04/07 00:21:09;;;;;;;;;;;;;;;;;;4424594;32;20317;-78
2023/04/07 00:23:41;;;;;;;;;;;;;;;;;;4438444;32;19970;-79
2023/04/07 00:26:06;;;;;;;;;;;;;;;;;;4430144;32;19974;-78
2023/04/07 00:28:31;;;;;;;;;;;;;;;;;;4439450;32;19941;-78
2023/04/07 00:30:56;;;;;;;;;;;;;;;;;;4438450;32;20227;-78
2023/04/07 00:33:22;;;;;;;;;;;;;;;;;;4423747;32;19956;-78
2023/04/07 00:35:47;;;;;;;;;;;;;;;;;;4423776;32;19984;-79
2023/04/07 00:38:12;;;;;;;;;;;;;;;;;;4424271;32;20309;-78
2023/04/07 00:40:37;;;;;;;;;;;;;;;;;;4423473;32;19936;-79
2023/04/07 00:43:02;;;;;;;;;;;;;;;;;;4437423;32;19937;-78
2023/04/07 00:45:27;;;;;;;;;;;;;;;;;;4423523;32;19937;-78
2023/04/07 00:47:52;;;;;;;;;;;;;;;;;;4437284;32;19932;-79
2023/04/07 00:50:17;;;;;;;;;;;;;;;;;;4438757;32;19948;-79
2023/04/07 00:52:42;;;;;;;;;;;;;;;;;;4437536;32;19940;-79
2023/04/07 00:55:08;;;;;;;;;;;;;;;;;;4437753;32;20353;-79
2023/04/07 00:57:33;;;;;;;;;;;;;;;;;;4423601;32;19940;-79
2023/04/07 00:59:58;;;;;;;;;;;;;;;;;;4423254;32;19964;-79
2023/04/07 01:02:23;;;;;;;;;;;;;;;;;;4437355;32;19936;-77
2023/04/07 01:04:48;;;;;;;;;;;;;;;;;;4437063;32;19929;-77
2023/04/07 01:07:13;;;;;;;;;;;;;;;;;;4436600;32;19975;-78
2023/04/07 01:09:38;;;;;;;;;;;;;;;;;;4423020;32;19951;-78
2023/04/07 01:12:03;;;;;;;;;;;;;;;;;;4422700;32;19937;-78
2023/04/07 01:14:28;;;;;;;;;;;;;;;;;;4423347;32;19986;-78
2023/04/07 01:16:54;;;;;;;;;;;;;;;;;;4424161;32;19986;-78
2023/04/07 01:19:19;;;;;;;;;;;;;;;;;;4425263;32;19948;-78
2023/04/07 01:21:44;;;;;;;;;;;;;;;;;;4424747;32;20302;-79
2023/04/07 01:24:09;;;;;;;;;;;;;;;;;;4424255;32;19941;-79
2023/04/07 01:26:35;;;;;;;;;;;;;;;;;;4424563;32;20310;-79
2023/04/07 01:29:00;;;;;;;;;;;;;;;;;;4423887;32;19994;-79
2023/04/07 01:31:25;;;;;;;;;;;;;;;;;;4426318;32;19937;-78
2023/04/07 01:33:50;;;;;;;;;;;;;;;;;;4441521;32;19937;-79
2023/04/07 01:36:15;;;;;;;;;;;;;;;;;;4424437;32;19971;-79
2023/04/07 01:38:40;;;;;;;;;;;;;;;;;;4438099;32;19971;-79
2023/04/07 01:41:05;;;;;;;;;;;;;;;;;;4423411;32;19945;-79
2023/04/07 01:43:31;;;;;;;;;;;;;;;;;;4436893;32;19932;-78
2023/04/07 01:45:56;;;;;;;;;;;;;;;;;;4422728;32;20273;-78
2023/04/07 01:48:21;;;;;;;;;;;;;;;;;;4422419;32;19970;-79
2023/04/07 01:50:46;;;;;;;;;;;;;;;;;;4437237;32;19950;-78
2023/04/07 01:53:11;;;;;;;;;;;;;;;;;;4422557;32;19970;-78
2023/04/07 01:55:36;;;;;;;;;;;;;;;;;;4436660;32;20026;-78
2023/04/07 01:58:01;;;;;;;;;;;;;;;;;;4422771;32;19965;-77
2023/04/07 02:00:26;;;;;;;;;;;;;;;;;;4422391;32;19974;-77
2023/04/07 02:02:51;;;;;;;;;;;;;;;;;;4424654;32;19961;-77
2023/04/07 02:05:17;;;;;;;;;;;;;;;;;;4439024;32;19951;-78
2023/04/07 02:07:42;;;;;;;;;;;;;;;;;;4423266;32;20333;-78
2023/04/07 02:10:07;;;;;;;;;;;;;;;;;;4422962;32;19937;-78
2023/04/07 02:12:32;;;;;;;;;;;;;;;;;;4436706;32;19955;-78
2023/04/07 02:14:57;;;;;;;;;;;;;;;;;;4422196;32;19955;-78
2023/04/07 02:17:22;;;;;;;;;;;;;;;;;;4437777;32;19932;-77
2023/04/07 02:19:47;;;;;;;;;;;;;;;;;;4422623;32;19952;-77
2023/04/07 02:22:12;;;;;;;;;;;;;;;;;;4436861;32;19933;-79
2023/04/07 02:24:37;;;;;;;;;;;;;;;;;;4425387;32;19936;-77
2023/04/07 02:27:02;;;;;;;;;;;;;;;;;;4427075;32;19984;-78
2023/04/07 02:29:27;;;;;;;;;;;;;;;;;;4426898;32;19948;-78
2023/04/07 02:31:53;;;;;;;;;;;;;;;;;;4427202;32;19936;-78
2023/04/07 02:34:18;;;;;;;;;;;;;;;;;;4426610;32;19992;-78
2023/04/07 02:36:43;;;;;;;;;;;;;;;;;;4441258;32;19937;-78
2023/04/07 02:39:08;;;;;;;;;;;;;;;;;;4428571;32;19976;-77
2023/04/07 02:41:33;;;;;;;;;;;;;;;;;;4430400;32;19937;-77
2023/04/07 02:43:59;;;;;;;;;;;;;;;;;;4440602;32;19984;-78
2023/04/07 02:46:24;;;;;;;;;;;;;;;;;;4427279;32;19981;-76
2023/04/07 02:48:49;;;;;;;;;;;;;;;;;;4426309;32;19949;-77
2023/04/07 02:51:14;;;;;;;;;;;;;;;;;;4442518;32;19951;-76
2023/04/07 02:53:39;;;;;;;;;;;;;;;;;;4428970;32;20317;-77
2023/04/07 02:56:04;;;;;;;;;;;;;;;;;;4428557;32;20273;-77
2023/04/07 02:58:29;;;;;;;;;;;;;;;;;;4427758;32;20322;-78
2023/04/07 03:00:55;;;;;;;;;;;;;;;;;;4445108;32;19941;-79
2023/04/07 03:03:20;;;;;;;;;;;;;;;;;;4450588;32;19933;-77
2023/04/07 03:05:45;;;;;;;;;;;;;;;;;;4430176;32;19948;-78
2023/04/07 03:08:10;;;;;;;;;;;;;;;;;;4445424;32;19941;-78
2023/04/07 03:10:35;;;;;;;;;;;;;;;;;;4429390;32;19952;-78
2023/04/07 03:13:00;;;;;;;;;;;;;;;;;;4442582;32;19937;-78
2023/04/07 03:15:25;;;;;;;;;;;;;;;;;;4443427;32;19934;-77
2023/04/07 03:17:50;;;;;;;;;;;;;;;;;;4442968;32;19949;-77
2023/04/07 03:20:16;;;;;;;;;;;;;;;;;;4427142;32;19937;-77
2023/04/07 03:22:41;;;;;;;;;;;;;;;;;;4442720;32;19994;-78
2023/04/07 03:25:06;;;;;;;;;;;;;;;;;;4429131;32;19973;-78
2023/04/07 03:27:31;;;;;;;;;;;;;;;;;;4429276;32;19996;-78
2023/04/07 03:29:57;;;;;;;;;;;;;;;;;;4427602;32;19952;-79
2023/04/07 03:32:22;;;;;;;;;;;;;;;;;;4441070;32;19951;-79
2023/04/07 03:34:47;;;;;;;;;;;;;;;;;;4441022;32;19932;-78
2023/04/07 03:37:12;;;;;;;;;;;;;;;;;;4427814;32;19947;-78
2023/04/07 03:39:38;;;;;;;;;;;;;;;;;;4429564;32;19977;-78
2023/04/07 03:42:04;;;;;;;;;;;;;;;;;;4446441;32;19944;-78
2023/04/07 03:44:29;;;;;;;;;;;;;;;;;;4430664;32;19944;-78
2023/04/07 03:46:54;;;;;;;;;;;;;;;;;;4442035;32;19937;-78
2023/04/07 03:49:19;;;;;;;;;;;;;;;;;;4427408;32;20269;-77
2023/04/07 03:51:45;;;;;;;;;;;;;;;;;;4427985;32;19933;-76
2023/04/07 03:54:10;;;;;;;;;;;;;;;;;;4439821;32;19945;-77
2023/04/07 03:56:36;;;;;;;;;;;;;;;;;;4439636;32;19932;-77
2023/04/07 03:59:01;;;;;;;;;;;;;;;;;;4425228;32;19980;-77
2023/04/07 04:01:26;;;;;;;;;;;;;;;;;;4424662;32;19963;-77
2023/04/07 04:03:51;;;;;;;;;;;;;;;;;;4426594;32;19937;-77
2023/04/07 04:06:16;;;;;;;;;;;;;;;;;;4424625;32;19956;-77
2023/04/07 04:08:41;;;;;;;;;;;;;;;;;;4428257;32;19937;-78
2023/04/07 04:11:06;;;;;;;;;;;;;;;;;;4424961;32;19949;-77
2023/04/07 04:13:32;;;;;;;;;;;;;;;;;;4423346;32;19944;-76
2023/04/07 04:15:57;;;;;;;;;;;;;;;;;;4422424;32;19937;-78
2023/04/07 04:18:22;;;;;;;;;;;;;;;;;;4422386;32;20321;-77
2023/04/07 04:20:47;;;;;;;;;;;;;;;;;;4421972;32;19941;-77
2023/04/07 04:23:12;;;;;;;;;;;;;;;;;;4422343;32;20293;-77
2023/04/07 04:25:40;;;;;;;;;;;;;;;;;;4422989;32;19952;-78
2023/04/07 04:28:05;;;;;;;;;;;;;;;;;;4423145;32;19945;-77
2023/04/07 04:30:30;;;;;;;;;;;;;;;;;;4421384;32;19936;-77
2023/04/07 04:32:56;;;;;;;;;;;;;;;;;;4423389;32;19948;-78
2023/04/07 04:35:21;;;;;;;;;;;;;;;;;;4439861;32;19956;-78
2023/04/07 04:37:46;;;;;;;;;;;;;;;;;;4439646;32;19970;-77
2023/04/07 04:40:11;;;;;;;;;;;;;;;;;;4453669;32;19937;-77
2023/04/07 04:42:36;;;;;;;;;;;;;;;;;;4439371;32;19936;-78
2023/04/07 04:45:01;;;;;;;;;;;;;;;;;;4454061;32;20286;-76
2023/04/07 04:47:26;;;;;;;;;;;;;;;;;;4440508;32;19947;-78
2023/04/07 04:49:51;;;;;;;;;;;;;;;;;;4456381;32;19986;-77
2023/04/07 04:52:16;;;;;;;;;;;;;;;;;;4443854;32;19937;-78
2023/04/07 04:54:41;;;;;;;;;;;;;;;;;;4459605;32;19932;-78
2023/04/07 04:57:07;;;;;;;;;;;;;;;;;;4447472;32;19962;-78
2023/04/07 04:59:32;;;;;;;;;;;;;;;;;;4446043;32;19955;-77
2023/04/07 05:01:57;;;;;;;;;;;;;;;;;;4456899;32;19940;-79
2023/04/07 05:04:22;;;;;;;;;;;;;;;;;;4452965;32;20298;-77
2023/04/07 05:06:47;;;;;;;;;;;;;;;;;;4452831;32;19951;-76
2023/04/07 05:09:12;;;;;;;;;;;;;;;;;;4438750;32;19973;-77
2023/04/07 05:11:37;;;;;;;;;;;;;;;;;;4453232;32;19948;-77
2023/04/07 05:14:02;;;;;;;;;;;;;;;;;;4438486;32;19936;-76
2023/04/07 05:16:27;;;;;;;;;;;;;;;;;;4452450;32;19941;-77
2023/04/07 05:18:52;;;;;;;;;;;;;;;;;;4438963;32;19944;-77
2023/04/07 05:21:20;;;;;;;;;;;;;;;;;;4452782;32;19944;-76
2023/04/07 05:23:45;;;;;;;;;;;;;;;;;;4454537;32;20238;-77
2023/04/07 05:26:11;;;;;;;;;;;;;;;;;;4439610;32;20003;-77
2023/04/07 05:28:36;;;;;;;;;;;;;;;;;;4455327;32;20258;-76
2023/04/07 05:31:01;;;;;;;;;;;;;;;;;;4421847;32;19973;-76
2023/04/07 05:33:26;;;;;;;;;;;;;;;;;;4408976;32;19940;-76
2023/04/07 05:35:51;;;;;;;;;;;;;;;;;;4408502;32;19964;-76
2023/04/07 05:38:16;;;;;;;;;;;;;;;;;;4408089;32;19937;-76
2023/04/07 05:40:41;;;;;;;;;;;;;;;;;;4407490;32;19970;-76
2023/04/07 05:43:06;;;;;;;;;;;;;;;;;;4408091;32;20287;-76
2023/04/07 05:45:32;;;;;;;;;;;;;;;;;;4424490;32;19941;-77
2023/04/07 05:47:57;;;;;;;;;;;;;;;;;;4424367;32;20008;-77
2023/04/07 05:50:22;;;;;;;;;;;;;;;;;;4409787;32;19948;-78
2023/04/07 05:52:47;;;;;;;;;;;;;;;;;;4408764;32;20322;-77
2023/04/07 05:55:12;;;;;;;;;;;;;;;;;;4421511;32;19996;-78
2023/04/07 05:57:37;;;;;;;;;;;;;;;;;;4422184;32;19929;-77
2023/04/07 06:00:03;;;;;;;;;;;;;;;;;;4421698;32;19948;-77
2023/04/07 06:02:28;;;;;;;;;;;;;;;;;;4421748;32;20254;-77
2023/04/07 06:04:53;;;;;;;;;;;;;;;;;;4420946;32;19942;-77
2023/04/07 06:07:18;;;;;;;;;;;;;;;;;;4407051;32;19937;-77
2023/04/07 06:09:43;;;;;;;;;;;;;;;;;;4420709;32;20265;-77
2023/04/07 06:12:11;;;;;;;;;;;;;;;;;;4421320;32;19937;-77
2023/04/07 06:14:36;;;;;;;;;;;;;;;;;;4406900;32;19929;-77
2023/04/07 06:17:01;;;;;;;;;;;;;;;;;;4407475;32;19959;-77
2023/04/07 06:19:26;;;;;;;;;;;;;;;;;;4406965;32;19947;-77
2023/04/07 06:21:51;;;;;;;;;;;;;;;;;;4421225;32;19949;-77
2023/04/07 06:24:16;;;;;;;;;;;;;;;;;;4409142;32;19963;-77
2023/04/07 06:26:42;;;;;;;;;;;;;;;;;;4420994;32;19947;-76
2023/04/07 06:29:07;;;;;;;;;;;;;;;;;;4457352;32;20249;-77
2023/04/07 06:31:32;;;;;;;;;;;;;;;;;;4442489;32;19947;-77
2023/04/07 06:33:57;;;;;;;;;;;;;;;;;;4427099;32;19941;-78
2023/04/07 06:36:22;;;;;;;;;;;;;;;;;;4427363;32;19936;-77
2023/04/07 06:38:47;;;;;;;;;;;;;;;;;;4427023;32;20298;-77
2023/04/07 06:41:15;;;;;;;;;;;;;;;;;;4441598;32;20107;-78
2023/04/07 06:43:41;;;;;;;;;;;;;;;;;;4441598;32;19944;-78
2023/04/07 06:46:06;;;;;;;;;;;;;;;;;;4428382;32;20300;-78
2023/04/07 06:48:31;;;;;;;;;;;;;;;;;;4427075;32;19990;-78
2023/04/07 06:50:56;;;;;;;;;;;;;;;;;;4428536;32;19967;-78
2023/04/07 06:53:21;;;;;;;;;;;;;;;;;;4442588;32;19937;-78
2023/04/07 06:55:46;;;;;;;;;;;;;;;;;;4441931;32;19937;-78
2023/04/07 06:58:11;;;;;;;;;;;;;;;;;;4427178;32;19947;-79
2023/04/07 07:00:36;;;;;;;;;;;;;;;;;;4426859;32;20314;-79
2023/04/07 07:03:01;;;;;;;;;;;;;;;;;;4427407;32;20381;-80
2023/04/07 07:05:27;;;;;;;;;;;;;;;;;;4442146;32;20254;-79
2023/04/07 07:07:52;;;;;;;;;;;;;;;;;;4428754;32;19932;-79
2023/04/07 07:10:19;;;;;;;;;;;;;;;;;;4456423;32;19933;-79
2023/04/07 07:12:44;;;;;;;;;;;;;;;;;;4435683;32;19975;-80
2023/04/07 07:15:09;;;;;;;;;;;;;;;;;;4427343;32;19937;-79
2023/04/07 07:17:34;;;;;;;;;;;;;;;;;;4424831;32;19946;-81
2023/04/07 07:20:00;;;;;;;;;;;;;;;;;;4424669;32;19938;-80
2023/04/07 07:22:25;;;;;;;;;;;;;;;;;;4425810;32;19945;-80
2023/04/07 07:24:50;;;;;;;;;;;;;;;;;;4424402;32;19967;-78
2023/04/07 07:27:15;;;;;;;;;;;;;;;;;;4426431;32;19951;-79
2023/04/07 07:29:40;;;;;;;;;;;;;;;;;;4427035;32;19949;-79
2023/04/07 07:32:06;;;;;;;;;;;;;;;;;;4429103;32;19937;-76
2023/04/07 07:34:31;;;;;;;;;;;;;;;;;;4429297;32;19956;-78
2023/04/07 07:36:56;;;;;;;;;;;;;;;;;;4424854;32;19938;-80
2023/04/07 07:39:21;;;;;;;;;;;;;;;;;;4425166;32;20021;-78
2023/04/07 07:41:46;;;;;;;;;;;;;;;;;;4421971;32;19956;-78
2023/04/07 07:44:11;;;;;;;;;;;;;;;;;;4424392;32;20293;-80
2023/04/07 07:46:36;;;;;;;;;;;;;;;;;;4423989;32;19952;-80
2023/04/07 07:49:01;;;;;;;;;;;;;;;;;;4422508;32;19947;-80
2023/04/07 07:51:26;;;;;;;;;;;;;;;;;;4425326;32;19938;-80
2023/04/07 07:53:52;;;;;;;;;;;;;;;;;;4434248;32;19937;-80
2023/04/07 07:56:17;;;;;;;;;;;;;;;;;;4425712;32;19937;-80
2023/04/07 07:58:42;;;;;;;;;;;;;;;;;;4424191;32;20366;-79
2023/04/07 08:01:07;;;;;;;;;;;;;;;;;;4423925;32;20275;-79
2023/04/07 08:03:32;;;;;;;;;;;;;;;;;;4423909;32;20388;-80
2023/04/07 08:05:57;;;;;;;;;;;;;;;;;;4421802;32;20363;-80
2023/04/07 08:08:22;;;;;;;;;;;;;;;;;;4423996;32;19977;-79
2023/04/07 08:10:48;;;;;;;;;;;;;;;;;;4421440;32;20254;-80
2023/04/07 08:13:13;;;;;;;;;;;;;;;;;;4421650;32;19946;-79
2023/04/07 08:15:38;;;;;;;;;;;;;;;;;;4422757;32;19943;-80
2023/04/07 08:18:05;;;;;;;;;;;;;;;;;;4424597;32;19977;-80
2023/04/07 08:20:33;;;;;;;;;;;;;;;;;;4421524;32;19933;-81
2023/04/07 08:22:58;;;;;;;;;;;;;;;;;;4421302;32;20310;-78
2023/04/07 08:25:23;;;;;;;;;;;;;;;;;;4421404;32;20023;-80
2023/04/07 08:27:48;;;;;;;;;;;;;;;;;;4421019;32;19947;-79
2023/04/07 08:30:13;;;;;;;;;;;;;;;;;;4421270;32;19944;-80
2023/04/07 08:32:39;;;;;;;;;;;;;;;;;;4421348;32;19983;-79
2023/04/07 08:35:04;;;;;;;;;;;;;;;;;;4421187;32;19974;-80
2023/04/07 08:37:30;;;;;;;;;;;;;;;;;;4421627;32;19940;-78
2023/04/07 08:39:55;;;;;;;;;;;;;;;;;;4422509;32;19933;-80
2023/04/07 08:42:20;;;;;;;;;;;;;;;;;;4421371;32;19937;-80
2023/04/07 08:44:45;;;;;;;;;;;;;;;;;;4421421;32;19970;-81
2023/04/07 08:47:10;;;;;;;;;;;;;;;;;;4422570;32;20302;-80
2023/04/07 08:49:39;;;;;;;;;;;;;;;;;;4422641;32;19986;-78
2023/04/07 08:52:04;;;;;;;;;;;;;;;;;;4421609;32;19933;-81
2023/04/07 08:54:29;;;;;;;;;;;;;;;;;;4421625;32;19994;-79
2023/04/07 08:56:55;;;;;;;;;;;;;;;;;;4421933;32;19971;-79
2023/04/07 08:59:25;;;;;;;;;;;;;;;;;;4424438;32;19937;-78
2023/04/07 09:01:50;;;;;;;;;;;;;;;;;;4429282;32;19970;-80
2023/04/07 09:04:15;;;;;;;;;;;;;;;;;;4435087;32;19930;-79
2023/04/07 09:06:40;;;;;;;;;;;;;;;;;;4426534;32;19933;-79
2023/04/07 09:09:06;;;;;;;;;;;;;;;;;;4421127;32;19942;-78
2023/04/07 09:11:31;;;;;;;;;;;;;;;;;;4420358;32;19945;-78
2023/04/07 09:13:57;;;;;;;;;;;;;;;;;;4434319;32;19933;-79
2023/04/07 09:16:22;;;;;;;;;;;;;;;;;;4436225;32;19933;-78
2023/04/07 09:21:32;;;;;;;;;;;;;;;;;;4437473;32;20058;-77
2023/04/07 09:23:57;;;;;;;;;;;;;;;;;;4435873;32;19937;-78
2023/04/07 09:26:23;;;;;;;;;;;;;;;;;;4437966;32;20305;-79
2023/04/07 09:28:49;;;;;;;;;;;;;;;;;;4436393;32;19948;-79
2023/04/07 09:31:14;;;;;;;;;;;;;;;;;;4435807;32;19941;-78
2023/04/07 09:33:40;;;;;;;;;;;;;;;;;;4437354;32;20282;-79
2023/04/07 09:36:05;;;;;;;;;;;;;;;;;;4437154;32;19940;-79
2023/04/07 09:38:30;;;;;;;;;;;;;;;;;;4437015;32;19961;-78
2023/04/07 09:40:55;;;;;;;;;;;;;;;;;;4437826;32;20008;-79
2023/04/07 09:43:20;;;;;;;;;;;;;;;;;;4437237;32;19994;-77
2023/04/07 09:45:46;;;;;;;;;;;;;;;;;;4436005;32;19940;-79
2023/04/07 09:48:11;;;;;;;;;;;;;;;;;;4435915;32;19937;-79
2023/04/07 09:50:37;;;;;;;;;;;;;;;;;;4435549;32;19933;-77
2023/04/07 09:53:03;;;;;;;;;;;;;;;;;;4435706;32;19969;-79
2023/04/07 09:55:28;;;;;;;;;;;;;;;;;;4436466;32;19949;-79
2023/04/07 09:57:54;;;;;;;;;;;;;;;;;;4421880;32;19986;-79
2023/04/07 10:00:19;;;;;;;;;;;;;;;;;;4430423;32;20022;-80
2023/04/07 10:02:44;;;;;;;;;;;;;;;;;;4426970;32;19952;-79
2023/04/07 10:05:10;;;;;;;;;;;;;;;;;;4423083;32;20305;-79
2023/04/07 10:07:35;;;;;;;;;;;;;;;;;;4421310;32;19972;-78
2023/04/07 10:10:00;;;;;;;;;;;;;;;;;;4420028;32;20281;-79
2023/04/07 10:12:25;;;;;;;;;;;;;;;;;;4421950;32;19937;-80
2023/04/07 10:14:51;;;;;;;;;;;;;;;;;;4422266;32;19956;-80
2023/04/07 10:17:20;;;;;;;;;;;;;;;;;;4420916;32;19941;-78
2023/04/07 10:19:45;;;;;;;;;;;;;;;;;;4422035;32;19933;-79
2023/04/07 10:22:10;;;;;;;;;;;;;;;;;;4422489;32;19955;-78
2023/04/07 10:24:35;;;;;;;;;;;;;;;;;;4422903;32;19937;-80
2023/04/07 10:27:02;;;;;;;;;;;;;;;;;;4422956;32;19942;-80
2023/04/07 10:29:27;;;;;;;;;;;;;;;;;;4429610;32;19936;-79
2023/04/07 10:31:52;;;;;;;;;;;;;;;;;;4430711;32;19938;-77
2023/04/07 10:34:17;;;;;;;;;;;;;;;;;;4429652;32;19933;-78
2023/04/07 10:36:42;;;;;;;;;;;;;;;;;;4427757;32;20259;-78
2023/04/07 10:39:07;;;;;;;;;;;;;;;;;;4423403;32;20290;-79
2023/04/07 10:41:36;;;;;;;;;;;;;;;;;;4420339;32;20358;-78
2023/04/07 10:44:02;;;;;;;;;;;;;;;;;;4420762;32;19962;-78
2023/04/07 10:46:29;;;;;;;;;;;;;;;;;;4421613;32;19974;-79
2023/04/07 10:48:54;;;;;;;;;;;;;;;;;;4420223;32;19945;-79
2023/04/07 10:51:19;;;;;;;;;;;;;;;;;;4421857;32;19937;-79
2023/04/07 10:53:44;;;;;;;;;;;;;;;;;;4421299;32;19941;-79
2023/04/07 10:56:09;;;;;;;;;;;;;;;;;;4420221;32;19960;-79
2023/04/07 10:58:34;;;;;;;;;;;;;;;;;;4431489;32;19937;-80
2023/04/07 11:01:00;;;;;;;;;;;;;;;;;;4439549;32;20323;-80
2023/04/07 11:03:25;;;;;;;;;;;;;;;;;;4436488;32;19957;-79
2023/04/07 11:05:50;;;;;;;;;;;;;;;;;;4437376;32;19937;-79
2023/04/07 11:08:16;;;;;;;;;;;;;;;;;;4437699;32;19941;-78
2023/04/07 11:10:41;;;;;;;;;;;;;;;;;;4438084;32;19960;-77
2023/04/07 11:13:06;;;;;;;;;;;;;;;;;;4436060;32;19985;-77
2023/04/07 11:15:32;;;;;;;;;;;;;;;;;;4439123;32;19941;-78
2023/04/07 11:17:57;;;;;;;;;;;;;;;;;;4440134;32;19992;-77
2023/04/07 11:20:23;;;;;;;;;;;;;;;;;;4439416;32;19945;-78
2023/04/07 11:22:48;;;;;;;;;;;;;;;;;;4439556;32;19995;-79
2023/04/07 11:25:13;;;;;;;;;;;;;;;;;;4437479;32;19933;-77
2023/04/07 11:27:38;;;;;;;;;;;;;;;;;;4422095;32;19937;-78
2023/04/07 11:30:04;;;;;;;;;;;;;;;;;;4423879;32;19941;-78
2023/04/07 11:32:29;;;;;;;;;;;;;;;;;;4423185;32;19972;-78
2023/04/07 11:34:54;;;;;;;;;;;;;;;;;;4421891;32;19929;-78
2023/04/07 11:37:20;;;;;;;;;;;;;;;;;;4424035;32;19974;-78
2023/04/07 11:39:46;;;;;;;;;;;;;;;;;;4423658;32;19937;-80
2023/04/07 11:42:12;;;;;;;;;;;;;;;;;;4423916;32;19937;-79
2023/04/07 11:44:37;;;;;;;;;;;;;;;;;;4422199;32;19937;-78
2023/04/07 11:47:03;;;;;;;;;;;;;;;;;;4423784;32;19998;-77
2023/04/07 11:49:28;;;;;;;;;;;;;;;;;;4423129;32;20304;-78
2023/04/07 11:51:53;;;;;;;;;;;;;;;;;;4423294;32;20525;-77
2023/04/07 11:54:18;;;;;;;;;;;;;;;;;;4423175;32;20008;-79
2023/04/07 11:56:44;;;;;;;;;;;;;;;;;;4434897;32;19997;-77
2023/04/07 11:59:09;;;;;;;;;;;;;;;;;;4436973;32;19972;-78
2023/04/07 12:01:34;;;;;;;;;;;;;;;;;;4429338;32;20342;-77
2023/04/07 12:04:00;;;;;;;;;;;;;;;;;;4423042;32;20387;-77
2023/04/07 12:06:26;;;;;;;;;;;;;;;;;;4427409;32;19970;-79
2023/04/07 12:08:51;;;;;;;;;;;;;;;;;;4427415;32;19951;-77
2023/04/07 12:11:17;;;;;;;;;;;;;;;;;;4430445;32;20266;-77
2023/04/07 12:13:45;;;;;;;;;;;;;;;;;;4422140;32;20310;-81
2023/04/07 12:16:11;;;;;;;;;;;;;;;;;;4423677;32;19996;-79
2023/04/07 12:18:36;;;;;;;;;;;;;;;;;;4423650;32;19948;-78
2023/04/07 12:21:01;;;;;;;;;;;;;;;;;;4419766;32;19991;-79
2023/04/07 12:23:26;;;;;;;;;;;;;;;;;;4408393;32;20319;-79
2023/04/07 12:25:51;;;;;;;;;;;;;;;;;;4406302;32;19945;-78
2023/04/07 12:28:16;;;;;;;;;;;;;;;;;;4407064;32;20002;-78
2023/04/07 12:30:42;;;;;;;;;;;;;;;;;;4407609;32;19952;-78
2023/04/07 12:33:07;;;;;;;;;;;;;;;;;;4406123;32;19952;-79
2023/04/07 12:35:32;;;;;;;;;;;;;;;;;;4406116;32;19944;-78
2023/04/07 12:37:57;;;;;;;;;;;;;;;;;;4406616;32;20314;-79
2023/04/07 12:40:25;;;;;;;;;;;;;;;;;;4405995;32;20331;-80
2023/04/07 12:42:50;;;;;;;;;;;;;;;;;;4407437;32;19968;-79
2023/04/07 12:45:18;;;;;;;;;;;;;;;;;;4409252;32;19951;-81
2023/04/07 12:47:43;;;;;;;;;;;;;;;;;;4407255;32;19940;-81
2023/04/07 12:50:08;;;;;;;;;;;;;;;;;;4406120;32;20370;-80
2023/04/07 12:52:35;;;;;;;;;;;;;;;;;;4407917;32;19937;-80
2023/04/07 12:55:00;;;;;;;;;;;;;;;;;;4407059;32;19969;-81
2023/04/07 12:57:25;;;;;;;;;;;;;;;;;;4407008;32;19937;-81
2023/04/07 12:59:52;;;;;;;;;;;;;;;;;;4409714;32;19969;-81
2023/04/07 13:02:17;;;;;;;;;;;;;;;;;;4413122;32;19970;-81
2023/04/07 13:04:45;;;;;;;;;;;;;;;;;;4416979;32;20318;-81
2023/04/07 13:07:10;;;;;;;;;;;;;;;;;;4415754;32;19942;-80
2023/04/07 13:09:35;;;;;;;;;;;;;;;;;;4413595;32;19933;-80
2023/04/07 13:12:01;;;;;;;;;;;;;;;;;;4412083;32;19966;-80
2023/04/07 13:14:26;;;;;;;;;;;;;;;;;;4421483;32;19971;-80
2023/04/07 13:16:51;;;;;;;;;;;;;;;;;;4424002;32;19974;-80
2023/04/07 13:19:17;;;;;;;;;;;;;;;;;;4434756;32;19925;-81
2023/04/07 13:21:42;;;;;;;;;;;;;;;;;;4432878;32;19937;-80
2023/04/07 13:24:07;;;;;;;;;;;;;;;;;;4430164;32;19929;-80
2023/04/07 13:26:32;;;;;;;;;;;;;;;;;;4428213;32;19937;-79
2023/04/07 13:28:59;;;;;;;;;;;;;;;;;;4431869;32;19937;-80
2023/04/07 13:31:24;;;;;;;;;;;;;;;;;;4429142;32;19933;-81
2023/04/07 13:33:49;;;;;;;;;;;;;;;;;;4428877;32;19933;-80
2023/04/07 13:36:15;;;;;;;;;;;;;;;;;;4427170;32;19948;-80
2023/04/07 13:38:41;;;;;;;;;;;;;;;;;;4423507;32;19981;-79
2023/04/07 13:41:06;;;;;;;;;;;;;;;;;;4421701;32;19937;-80
2023/04/07 13:43:31;;;;;;;;;;;;;;;;;;4421737;32;20318;-79
2023/04/07 13:45:56;;;;;;;;;;;;;;;;;;4421763;32;20258;-80
2023/04/07 13:48:21;;;;;;;;;;;;;;;;;;4420927;32;19974;-81
2023/04/07 13:50:47;;;;;;;;;;;;;;;;;;4420572;32;19938;-80
2023/04/07 13:53:12;;;;;;;;;;;;;;;;;;4420486;32;19938;-82
2023/04/07 13:55:37;;;;;;;;;;;;;;;;;;4422023;32;19941;-79
2023/04/07 13:58:02;;;;;;;;;;;;;;;;;;4420852;32;19970;-81
2023/04/07 14:00:27;;;;;;;;;;;;;;;;;;4422906;32;19983;-80
2023/04/07 14:02:54;;;;;;;;;;;;;;;;;;4423830;32;19933;-80
2023/04/07 14:05:19;;;;;;;;;;;;;;;;;;4422487;32;20056;-81
2023/04/07 14:07:44;;;;;;;;;;;;;;;;;;4421007;32;19944;-80
2023/04/07 14:10:10;;;;;;;;;;;;;;;;;;4422890;32;19957;-81
2023/04/07 14:12:35;;;;;;;;;;;;;;;;;;4408797;32;19989;-80
2023/04/07 14:15:02;;;;;;;;;;;;;;;;;;4421786;32;19945;-81
2023/04/07 14:17:27;;;;;;;;;;;;;;;;;;4440909;32;19941;-79
2023/04/07 14:19:52;;;;;;;;;;;;;;;;;;4434397;32;19948;-81
2023/04/07 14:22:18;;;;;;;;;;;;;;;;;;4428819;32;19987;-81
2023/04/07 14:24:44;;;;;;;;;;;;;;;;;;4431303;32;20277;-80
2023/04/07 14:27:09;;;;;;;;;;;;;;;;;;4434210;32;19959;-80
2023/04/07 14:29:34;;;;;;;;;;;;;;;;;;4425274;32;19929;-81
2023/04/07 14:31:59;;;;;;;;;;;;;;;;;;4443050;32;19983;-78
2023/04/07 14:34:24;;;;;;;;;;;;;;;;;;4436574;32;19921;-81
2023/04/07 14:36:50;;;;;;;;;;;;;;;;;;4437686;32;19949;-80
2023/04/07 14:39:15;;;;;;;;;;;;;;;;;;4422502;32;19935;-80
2023/04/07 14:41:40;;;;;;;;;;;;;;;;;;4421070;32;20022;-80
2023/04/07 14:44:05;;;;;;;;;;;;;;;;;;4424514;32;19918;-80
2023/04/07 14:46:30;;;;;;;;;;;;;;;;;;4435486;32;19924;-81
2023/04/07 14:48:57;;;;;;;;;;;;;;;;;;4431993;32;19951;-80
2023/04/07 14:51:22;;;;;;;;;;;;;;;;;;4425749;32;19929;-80
2023/04/07 14:53:56;;;;;;;;;;;;;;;;;;4426498;32;19934;-80
2023/04/07 14:56:21;;;;;;;;;;;;;;;;;;4431068;32;19946;-78
2023/04/07 14:58:46;;;;;;;;;;;;;;;;;;4429253;32;19933;-80
2023/04/07 15:01:11;;;;;;;;;;;;;;;;;;4451004;32;19975;-79
2023/04/07 15:03:37;;;;;;;;;;;;;;;;;;4434675;32;19937;-80
2023/04/07 15:06:02;;;;;;;;;;;;;;;;;;4426430;32;19967;-80
2023/04/07 15:08:27;;;;;;;;;;;;;;;;;;4426873;32;19952;-82
2023/04/07 15:10:52;;;;;;;;;;;;;;;;;;4427483;32;20019;-80
2023/04/07 15:13:17;;;;;;;;;;;;;;;;;;4430806;32;19969;-82
2023/04/07 15:15:42;;;;;;;;;;;;;;;;;;4432114;32;19944;-81
2023/04/07 15:18:07;;;;;;;;;;;;;;;;;;4433291;32;19959;-80
2023/04/07 15:20:33;;;;;;;;;;;;;;;;;;4430554;32;19940;-78
2023/04/07 15:22:59;;;;;;;;;;;;;;;;;;4428714;32;19932;-79
2023/04/07 15:25:24;;;;;;;;;;;;;;;;;;4430431;32;19948;-79
2023/04/07 15:27:49;;;;;;;;;;;;;;;;;;4440878;32;19944;-78
2023/04/07 15:30:15;;;;;;;;;;;;;;;;;;4425429;32;19996;-79
2023/04/07 15:32:40;;;;;;;;;;;;;;;;;;4425097;32;19951;-78
2023/04/07 15:35:05;;;;;;;;;;;;;;;;;;4425180;32;19941;-80
2023/04/07 15:37:30;;;;;;;;;;;;;;;;;;4442139;32;20331;-77
2023/04/07 15:39:55;;;;;;;;;;;;;;;;;;4428868;32;20270;-78
2023/04/07 15:42:20;;;;;;;;;;;;;;;;;;4440695;32;19976;-79
2023/04/07 15:44:45;;;;;;;;;;;;;;;;;;4418171;32;19964;-78
2023/04/07 15:47:10;;;;;;;;;;;;;;;;;;4423461;32;19980;-79
2023/04/07 15:49:40;;;;;;;;;;;;;;;;;;4423308;32;19941;-77
2023/04/07 15:52:05;;;;;;;;;;;;;;;;;;4415781;32;19948;-78
2023/04/07 15:54:30;;;;;;;;;;;;;;;;;;4416550;32;20013;-78
2023/04/07 15:56:55;;;;;;;;;;;;;;;;;;4423710;32;20007;-79
2023/04/07 15:59:20;;;;;;;;;;;;;;;;;;4422708;32;20017;-78
2023/04/07 16:01:45;;;;;;;;;;;;;;;;;;4423222;32;19937;-78
2023/04/07 16:04:10;;;;;;;;;;;;;;;;;;4423394;32;19929;-78
2023/04/07 16:06:36;;;;;;;;;;;;;;;;;;4423003;32;19960;-77
2023/04/07 16:09:01;;;;;;;;;;;;;;;;;;4409633;32;19949;-78
2023/04/07 16:11:26;;;;;;;;;;;;;;;;;;4423528;32;19937;-78
2023/04/07 16:13:51;;;;;;;;;;;;;;;;;;4422436;32;20002;-78
2023/04/07 16:16:17;;;;;;;;;;;;;;;;;;4419492;32;19956;-79
2023/04/07 16:18:43;;;;;;;;;;;;;;;;;;4429070;32;19937;-78
2023/04/07 16:21:08;;;;;;;;;;;;;;;;;;4427105;32;20002;-79
2023/04/07 16:23:33;;;;;;;;;;;;;;;;;;4443781;32;19955;-78
2023/04/07 16:25:58;;;;;;;;;;;;;;;;;;4446171;32;19941;-79
2023/04/07 16:28:23;;;;;;;;;;;;;;;;;;4425788;32;19974;-79
2023/04/07 16:30:48;;;;;;;;;;;;;;;;;;4426455;32;20318;-77
2023/04/07 16:33:13;;;;;;;;;;;;;;;;;;4427175;32;20227;-78
2023/04/07 16:35:38;;;;;;;;;;;;;;;;;;4426101;32;19941;-78